Time;durP1;ratioP1;P1;durP2;ratioP2;P2;SDS_P1;SDS_P2;PMS_P1;PMS_P2;Temp;Humidity;BMP_temperature;BMP_pressure;BME280_temperature;BME280_humidity;BME280_pressure;Samples;Min_cycle;Max_cycle;Signal;HPM_P1;HPM_P2
2021/01/11 04:55:08;;;;;;;42.55;26.82;;;;;;;0.05;81.18;99995.42;1776989;79;22687;-65
2021/01/11 04:57:39;;;;;;;41.30;25.30;;;;;;;0.02;81.08;99994.11;1749827;82;21151;-65
2021/01/11 05:00:09;;;;;;;37.95;24.72;;;;;;;0.01;81.08;99989.41;1720878;82;21429;-66
2021/01/11 05:02:44;;;;;;;39.27;25.20;;;;;;;0.06;81.12;99994.16;1749642;80;21563;-66
2021/01/11 05:05:12;;;;;;;42.67;27.10;;;;;;;0.15;81.22;99994.25;1749593;82;21064;-67
2021/01/11 05:07:41;;;;;;;41.37;26.82;;;;;;;0.25;81.10;99996.45;1749645;82;21147;-67
2021/01/11 05:10:10;;;;;;;46.20;25.40;;;;;;;0.34;80.95;99996.54;1749803;82;21012;-66
2021/01/11 05:12:38;;;;;;;34.95;22.77;;;;;;;0.43;80.75;99997.02;1749782;82;21417;-66
2021/01/11 05:15:20;;;;;;;34.43;22.40;;;;;;;0.52;80.62;100000.52;1669990;82;21040;-66
2021/01/11 05:17:48;;;;;;;40.87;25.60;;;;;;;0.61;80.39;99998.01;1749842;82;21130;-65
2021/01/11 05:20:21;;;;;;;40.95;26.15;;;;;;;0.70;80.28;99992.11;1749589;80;21175;-66
2021/01/11 05:22:49;;;;;;;44.55;27.62;;;;;;;0.80;79.92;99993.03;1749712;82;21528;-66
2021/01/11 05:25:22;;;;;;;41.53;26.97;;;;;;;0.87;79.64;99988.36;1749601;82;21216;-67
2021/01/11 05:28:07;;;;;;;43.08;28.05;;;;;;;0.97;79.35;99989.72;1890092;75;22319;-66
2021/01/11 05:30:40;;;;;;;42.78;27.40;;;;;;;0.98;79.08;99990.58;1861038;77;21048;-66
2021/01/11 05:33:13;;;;;;;37.35;24.92;;;;;;;1.02;78.77;99993.14;1861095;77;22330;-67
2021/01/11 05:35:41;;;;;;;42.40;25.70;;;;;;;1.06;78.60;99995.30;1858342;77;21553;-67
2021/01/11 05:38:18;;;;;;;46.02;26.48;;;;;;;1.09;78.46;99995.32;1860926;77;21013;-66
2021/01/11 05:40:47;;;;;;;46.08;24.67;;;;;;;1.12;78.25;99992.78;1860971;77;21045;-66
2021/01/11 05:43:21;;;;;;;38.58;23.42;;;;;;;1.12;78.09;99992.78;1861102;77;21468;-67
2021/01/11 05:45:49;;;;;;;37.93;23.55;;;;;;;1.10;77.87;99989.77;1860941;77;21335;-67
2021/01/11 05:48:16;;;;;;;39.45;22.45;;;;;;;1.03;77.79;99986.31;1837981;77;21076;-67
2021/01/11 05:50:50;;;;;;;49.05;25.90;;;;;;;1.01;77.95;99988.00;1827219;78;21059;-65
2021/01/11 05:53:26;;;;;;;53.40;32.70;;;;;;;0.94;77.93;99976.03;1827245;78;21074;-67
2021/01/11 05:55:55;;;;;;;71.50;38.83;;;;;;;0.83;77.92;99974.68;1827276;78;21021;-63
2021/01/11 05:58:25;;;;;;;71.00;38.17;;;;;;;0.69;78.08;99978.87;1826938;78;21120;-67
2021/01/11 06:00:54;;;;;;;608.50;285.22;;;;;;;0.59;78.35;99983.52;1825705;78;21647;-67
2021/01/11 06:03:22;;;;;;;95.03;53.28;;;;;;;0.57;78.58;99987.77;1824686;78;21143;-66
2021/01/11 06:05:49;;;;;;;61.98;40.80;;;;;;;0.59;78.78;99984.80;1825644;78;21131;-66
2021/01/11 06:08:17;;;;;;;62.48;38.17;;;;;;;0.67;78.75;99985.68;1827093;78;21036;-66
2021/01/11 06:10:44;;;;;;;67.60;40.45;;;;;;;0.76;78.72;99992.58;1827093;78;21194;-67
2021/01/11 06:13:15;;;;;;;78.42;42.05;;;;;;;0.83;78.61;99990.05;1827009;78;21072;-66
2021/01/11 06:15:44;;;;;;;65.83;38.30;;;;;;;0.88;78.36;99998.62;1826964;78;21065;-65
2021/01/11 06:18:14;;;;;;;82.88;43.73;;;;;;;0.86;78.25;99998.17;1822702;78;21053;-66
2021/01/11 06:20:46;;;;;;;62.85;34.45;;;;;;;0.88;78.33;100002.88;1827095;78;21053;-66
2021/01/11 06:23:26;;;;;;;59.50;29.85;;;;;;;0.93;78.38;100002.50;1827133;78;21404;-66
2021/01/11 06:25:55;;;;;;;43.75;27.70;;;;;;;0.95;78.27;100004.64;1794960;78;21565;-66
2021/01/11 06:28:32;;;;;;;43.00;26.15;;;;;;;0.95;78.28;100000.37;1827099;78;21112;-65
2021/01/11 06:31:11;;;;;;;45.85;27.05;;;;;;;0.99;78.18;100005.95;1827102;78;21061;-67
2021/01/11 06:33:40;;;;;;;44.35;24.90;;;;;;;1.01;78.12;100012.34;1827122;78;21556;-66
2021/01/11 06:36:19;;;;;;;35.08;22.02;;;;;;;1.02;78.38;100013.63;1827123;78;21354;-65
2021/01/11 06:38:48;;;;;;;33.08;22.60;;;;;;;1.10;78.35;100008.98;1826570;78;21060;-66
2021/01/11 06:41:18;;;;;;;37.70;21.07;;;;;;;1.17;78.26;100010.31;1826500;78;21656;-66
2021/01/11 06:43:54;;;;;;;31.57;19.25;;;;;;;1.23;78.16;100003.92;1826410;78;21056;-65
2021/01/11 06:46:42;;;;;;;44.23;21.52;;;;;;;1.29;77.94;100003.95;1826432;78;21088;-66
2021/01/11 06:49:07;;;;;;;41.30;21.50;;;;;;;1.35;77.76;100006.98;1825955;78;22123;-66
2021/01/11 06:51:44;;;;;;;40.28;23.18;;;;;;;1.40;77.60;100012.95;1794807;78;21077;-66
2021/01/11 06:54:16;;;;;;;34.95;21.80;;;;;;;1.43;77.48;100017.24;1826461;78;21557;-65
2021/01/11 06:56:45;;;;;;;36.08;22.50;;;;;;;1.48;77.26;100018.12;1826579;78;21075;-66
2021/01/11 06:59:19;;;;;;;33.23;21.52;;;;;;;1.49;77.09;100018.55;1826768;78;21127;-67
2021/01/11 07:01:47;;;;;;;37.30;22.55;;;;;;;1.49;76.93;100027.10;1826618;78;21420;-66
2021/01/11 07:04:36;;;;;;;51.70;25.88;;;;;;;1.47;76.66;100022.39;1826533;78;21085;-65
2021/01/11 07:07:28;;;;;;;49.33;29.35;;;;;;;1.43;76.77;100028.35;1826535;78;21024;-65
2021/01/11 07:10:19;;;;;;;54.70;30.82;;;;;;;1.36;76.95;100031.34;1793219;77;21079;-65
2021/01/11 07:12:46;;;;;;;44.03;29.55;;;;;;;1.30;77.23;100033.00;1762401;80;21094;-65
2021/01/11 07:15:15;;;;;;;50.63;30.90;;;;;;;1.29;77.25;100038.97;1763250;80;21217;-66
2021/01/11 07:17:47;;;;;;;51.28;29.82;;;;;;;1.30;77.22;100031.72;1793612;80;21145;-66
2021/01/11 07:20:16;;;;;;;49.45;30.00;;;;;;;1.25;76.96;100035.53;1793892;80;21117;-66
2021/01/11 07:22:47;;;;;;;56.50;32.20;;;;;;;1.11;76.85;100033.33;1793536;80;21217;-65
2021/01/11 07:25:22;;;;;;;49.48;31.40;;;;;;;1.02;77.60;100025.16;1793324;80;21162;-66
2021/01/11 07:27:57;;;;;;;56.23;33.38;;;;;;;1.09;77.73;100027.34;1783320;79;21207;-65
2021/01/11 07:30:25;;;;;;;55.55;33.08;;;;;;;1.20;77.81;100035.92;1778594;80;21139;-66
2021/01/11 07:32:54;;;;;;;47.17;30.72;;;;;;;1.29;77.65;100037.27;1778626;80;21236;-65
2021/01/11 07:35:22;;;;;;;56.25;25.97;;;;;;;1.32;77.45;100038.57;1778515;80;21151;-65
2021/01/11 07:37:49;;;;;;;50.12;29.05;;;;;;;1.34;77.25;100036.02;1776930;80;21230;-67
2021/01/11 07:40:17;;;;;;;43.40;27.90;;;;;;;1.34;77.26;100044.98;1777258;80;22417;-66
2021/01/11 07:42:49;;;;;;;45.80;29.75;;;;;;;1.37;77.26;100050.98;1778316;80;21666;-65
2021/01/11 07:45:18;;;;;;;49.90;27.85;;;;;;;1.45;77.21;100037.33;1779465;80;21055;-65
2021/01/11 07:47:51;;;;;;;50.28;26.82;;;;;;;1.50;77.06;100032.66;1779639;79;21492;-65
2021/01/11 07:50:22;;;;;;;52.85;31.02;;;;;;;1.55;76.88;100035.25;1779550;80;21154;-66
2021/01/11 07:52:50;;;;;;;49.18;30.57;;;;;;;1.61;76.85;100037.39;1744169;81;21235;-70
2021/01/11 07:55:18;;;;;;;57.60;29.40;;;;;;;1.68;76.61;100037.00;1725765;83;21185;-68
2021/01/11 07:57:49;;;;;;;41.18;26.80;;;;;;;1.76;76.51;100034.47;1659649;83;21153;-67
2021/01/11 08:00:20;;;;;;;47.48;26.50;;;;;;;1.80;76.26;100038.31;1726497;82;21068;-66
2021/01/11 08:02:50;;;;;;;45.35;28.23;;;;;;;1.81;75.95;100040.02;1699603;83;21175;-67
2021/01/11 08:05:25;;;;;;;42.90;29.23;;;;;;;1.72;75.75;100041.30;1688098;82;21209;-66
2021/01/11 08:08:06;;;;;;;47.73;29.67;;;;;;;1.60;75.83;100044.66;1682212;84;21182;-68
2021/01/11 08:10:37;;;;;;;43.30;25.77;;;;;;;1.60;76.22;100046.39;1717698;81;21103;-66
2021/01/11 08:13:09;;;;;;;39.58;25.27;;;;;;;1.69;76.08;100052.81;1703093;84;21114;-65
2021/01/11 08:15:37;;;;;;;51.20;28.10;;;;;;;1.77;76.03;100043.45;1729653;82;21066;-67
2021/01/11 08:18:06;;;;;;;48.95;27.67;;;;;;;1.87;75.80;100047.75;1729738;83;21405;-67
2021/01/11 08:20:34;;;;;;;45.30;27.93;;;;;;;1.95;75.51;100055.47;1699017;83;21115;-66
2021/01/11 08:23:09;;;;;;;47.38;28.15;;;;;;;2.02;75.31;100049.48;1699090;84;21145;-66
2021/01/11 08:25:40;;;;;;;36.35;25.52;;;;;;;2.10;75.10;100058.48;1699132;84;21489;-66
2021/01/11 08:28:10;;;;;;;46.18;23.30;;;;;;;2.16;74.85;100064.92;1715830;81;21477;-69
2021/01/11 08:30:38;;;;;;;30.55;20.92;;;;;;;2.19;74.70;100065.80;1722626;83;21218;-67
2021/01/11 08:33:07;;;;;;;44.67;23.95;;;;;;;2.18;74.44;100060.23;1722490;83;21103;-69
2021/01/11 08:35:36;;;;;;;44.63;23.07;;;;;;;2.18;74.49;100060.23;1722581;83;21504;-67
2021/01/11 08:38:08;;;;;;;34.67;21.48;;;;;;;2.24;74.62;100064.50;1695967;83;21063;-66
2021/01/11 08:40:34;;;;;;;29.70;20.70;;;;;;;2.32;74.45;100061.52;1698095;83;21106;-65
2021/01/11 08:43:20;;;;;;;40.45;22.20;;;;;;;2.40;74.16;100059.80;1713023;83;21227;-67
2021/01/11 08:45:52;;;;;;;30.85;22.25;;;;;;;2.46;73.79;100062.38;1709881;83;21091;-67
2021/01/11 08:48:31;;;;;;;26.50;18.80;;;;;;;2.54;73.43;100070.11;1722390;82;21250;-66
2021/01/11 08:50:59;;;;;;;39.15;20.12;;;;;;;2.49;73.22;100071.37;1708149;83;21101;-67
2021/01/11 08:53:31;;;;;;;27.13;19.62;;;;;;;2.50;73.12;100067.10;1717172;82;21488;-65
2021/01/11 08:56:01;;;;;;;35.08;18.48;;;;;;;2.52;72.93;100067.96;1711411;82;21392;-66
2021/01/11 08:58:31;;;;;;;30.82;19.55;;;;;;;2.55;72.87;100064.12;1713079;82;21111;-66
2021/01/11 09:01:19;;;;;;;37.42;18.75;;;;;;;2.60;72.83;100063.70;1713168;83;21146;-68
2021/01/11 09:03:50;;;;;;;34.88;24.90;;;;;;;2.61;72.44;100062.81;1748187;81;21063;-66
2021/01/11 09:06:41;;;;;;;34.40;23.15;;;;;;;2.49;72.17;100062.39;1749104;81;21221;-66
2021/01/11 09:09:15;;;;;;;38.33;19.40;;;;;;;2.45;72.39;100057.25;1747349;81;21371;-66
2021/01/11 09:11:45;;;;;;;37.67;21.10;;;;;;;2.49;72.36;100057.25;1710331;83;21162;-68
2021/01/11 09:14:18;;;;;;;30.57;18.52;;;;;;;2.58;72.26;100047.43;1710557;83;21555;-68
2021/01/11 09:16:47;;;;;;;63.83;22.95;;;;;;;2.63;72.23;100043.98;1715712;82;21094;-67
2021/01/11 09:19:18;;;;;;;35.28;19.48;;;;;;;2.66;72.02;100045.27;1753443;81;21512;-68
2021/01/11 09:22:05;;;;;;;23.98;18.12;;;;;;;2.73;71.86;100038.00;1763144;81;21408;-66
2021/01/11 09:24:34;;;;;;;20.60;16.57;;;;;;;2.80;71.49;100036.72;1767296;81;21146;-68
2021/01/11 09:27:05;;;;;;;30.70;17.52;;;;;;;2.75;70.72;100036.72;1730419;82;21100;-66
2021/01/11 09:29:38;;;;;;;25.72;18.62;;;;;;;2.63;70.89;100038.84;1730580;83;21071;-66
2021/01/11 09:32:06;;;;;;;44.90;23.30;;;;;;;2.56;71.18;100047.42;1716530;82;21170;-68
2021/01/11 09:34:34;;;;;;;30.50;20.12;;;;;;;2.53;71.25;100030.73;1713509;83;21393;-66
2021/01/11 09:37:02;;;;;;;41.77;19.52;;;;;;;2.53;71.38;100037.15;1713406;83;21161;-68
2021/01/11 09:39:30;;;;;;;44.23;18.80;;;;;;;2.55;71.70;100035.44;1728208;82;21644;-68
2021/01/11 09:41:58;;;;;;;32.42;19.15;;;;;;;2.58;71.39;100036.73;1704546;82;21162;-68
2021/01/11 09:44:29;;;;;;;40.85;20.75;;;;;;;2.54;71.68;100029.02;1706685;83;21504;-68
2021/01/11 09:46:58;;;;;;;31.50;19.50;;;;;;;2.56;71.72;100026.89;1708476;83;22184;-68
2021/01/11 09:49:26;;;;;;;36.55;18.52;;;;;;;2.57;71.78;100027.74;1743894;81;21071;-69
2021/01/11 09:51:55;;;;;;;35.50;20.00;;;;;;;2.64;71.67;100030.71;1767256;81;21118;-68
2021/01/11 09:54:23;;;;;;;26.95;19.40;;;;;;;2.58;71.33;100021.32;1703416;83;21607;-67
2021/01/11 09:56:50;;;;;;;32.60;18.48;;;;;;;2.55;71.47;100023.03;1709501;83;21539;-67
2021/01/11 09:59:18;;;;;;;34.98;20.15;;;;;;;2.57;71.59;100021.32;1723707;82;21225;-68
2021/01/11 10:01:47;;;;;;;29.00;19.90;;;;;;;2.65;71.71;100023.44;1703801;83;21190;-67
2021/01/11 10:04:18;;;;;;;33.70;20.68;;;;;;;2.73;71.48;100020.02;1686544;83;21508;-67
2021/01/11 10:06:55;;;;;;;30.23;21.35;;;;;;;2.73;71.08;100025.16;1710590;84;21609;-67
2021/01/11 10:09:27;;;;;;;31.82;19.55;;;;;;;2.65;71.18;100023.02;1710287;84;21642;-66
2021/01/11 10:11:57;;;;;;;39.77;20.20;;;;;;;2.62;71.40;100021.72;1717676;83;21418;-67
2021/01/11 10:14:26;;;;;;;38.80;19.57;;;;;;;2.64;71.31;100025.58;1712836;82;21161;-67
2021/01/11 10:16:55;;;;;;;36.25;20.72;;;;;;;2.62;71.46;100033.28;1712125;83;21209;-71
2021/01/11 10:19:26;;;;;;;47.70;19.32;;;;;;;2.65;71.45;100030.72;1712720;83;21197;-67
2021/01/11 10:21:54;;;;;;;29.48;18.80;;;;;;;2.74;71.33;100028.58;1712725;83;21217;-67
2021/01/11 10:27:00;;;;;;;42.90;21.40;;;;;;;2.88;71.15;100032.41;1888916;75;22663;-68
2021/01/11 10:29:28;;;;;;;32.10;19.55;;;;;;;2.88;70.78;100030.70;1859802;77;21129;-68
2021/01/11 10:31:57;;;;;;;39.27;21.10;;;;;;;2.88;70.76;100031.98;1860094;77;21374;-68
2021/01/11 10:34:25;;;;;;;43.40;20.52;;;;;;;2.83;70.87;100034.12;1860392;77;21132;-68
2021/01/11 10:36:55;;;;;;;40.63;21.20;;;;;;;2.86;70.89;100036.69;1828000;77;20952;-67
2021/01/11 10:39:25;;;;;;;28.35;19.80;;;;;;;2.84;70.74;100032.84;1847045;76;21142;-67
2021/01/11 10:41:54;;;;;;;45.43;24.02;;;;;;;2.81;70.80;100030.69;1860395;77;21572;-66
2021/01/11 10:44:26;;;;;;;37.45;21.68;;;;;;;2.75;71.02;100035.44;1860725;77;22178;-67
2021/01/11 10:46:58;;;;;;;41.92;19.82;;;;;;;2.76;70.99;100038.00;1858432;77;21565;-65
2021/01/11 10:49:26;;;;;;;40.78;23.40;;;;;;;2.73;70.91;100029.44;1827059;78;21104;-66
2021/01/11 10:51:57;;;;;;;30.25;22.10;;;;;;;2.61;71.01;100030.28;1827124;78;21127;-66
2021/01/11 10:54:26;;;;;;;37.58;26.62;;;;;;;2.52;71.34;100026.87;1827120;78;21116;-67
2021/01/11 10:56:54;;;;;;;33.67;21.68;;;;;;;2.45;71.54;100030.29;1827135;78;22348;-67
2021/01/11 10:59:22;;;;;;;41.13;21.48;;;;;;;2.46;71.90;100024.30;1827027;78;21128;-66
2021/01/11 11:01:55;;;;;;;46.40;22.95;;;;;;;2.56;71.95;100027.31;1826940;78;21081;-67
2021/01/11 11:04:27;;;;;;;34.00;20.95;;;;;;;2.62;71.68;100030.71;1790266;79;21059;-66
2021/01/11 11:06:57;;;;;;;33.18;21.10;;;;;;;2.57;71.44;100027.31;1809162;78;21091;-67
2021/01/11 11:09:24;;;;;;;68.30;25.88;;;;;;;2.51;71.61;100027.73;1814807;78;21373;-67
2021/01/11 11:11:56;;;;;;;59.27;24.00;;;;;;;2.48;71.53;100026.02;1815175;79;21611;-67
2021/01/11 11:14:24;;;;;;;70.90;26.73;;;;;;;2.48;71.78;100022.16;1815186;79;21111;-67
2021/01/11 11:16:54;;;;;;;36.65;21.05;;;;;;;2.50;71.73;100026.02;1814989;79;21154;-68
2021/01/11 11:19:22;;;;;;;35.17;21.93;;;;;;;2.50;71.69;100023.45;1813933;78;21159;-66
2021/01/11 11:21:52;;;;;;;38.70;20.72;;;;;;;2.50;71.48;100021.74;1814706;79;21336;-66
2021/01/11 11:24:20;;;;;;;32.98;20.43;;;;;;;2.53;71.47;100017.89;1815092;79;21525;-67
2021/01/11 11:26:49;;;;;;;39.60;20.60;;;;;;;2.53;71.31;100020.46;1815133;79;21048;-67
2021/01/11 11:29:17;;;;;;;32.63;19.20;;;;;;;2.52;71.39;100007.63;1815284;79;21107;-67
2021/01/11 11:31:46;;;;;;;35.55;20.17;;;;;;;2.55;71.35;100011.48;1815222;79;21582;-67
2021/01/11 11:34:14;;;;;;;48.15;22.58;;;;;;;2.54;71.12;100008.48;1815274;79;21378;-68
2021/01/11 11:36:42;;;;;;;38.67;21.62;;;;;;;2.48;71.40;100009.33;1814998;79;21067;-68
2021/01/11 11:39:11;;;;;;;69.20;22.48;;;;;;;2.45;71.54;100004.19;1814784;78;21596;-69
2021/01/11 11:41:41;;;;;;;47.60;21.77;;;;;;;2.42;71.70;100001.62;1814672;79;21080;-69
2021/01/11 11:44:09;;;;;;;42.10;21.00;;;;;;;2.45;71.91;99998.20;1816882;78;21457;-67
2021/01/11 11:46:37;;;;;;;41.42;20.50;;;;;;;2.54;71.98;100002.06;1826575;78;22244;-71
2021/01/11 11:49:06;;;;;;;40.33;19.57;;;;;;;2.58;71.55;100002.49;1816089;77;21139;-69
2021/01/11 11:51:39;;;;;;;44.30;20.88;;;;;;;2.60;71.63;100005.92;1792286;80;21108;-67
2021/01/11 11:54:09;;;;;;;33.42;18.77;;;;;;;2.62;71.47;100003.75;1811228;78;21620;-67
2021/01/11 11:56:42;;;;;;;38.10;19.67;;;;;;;2.59;71.37;100007.63;1812636;79;21120;-68
2021/01/11 11:59:10;;;;;;;40.55;19.35;;;;;;;2.55;71.06;100008.48;1812454;79;21363;-67
2021/01/11 12:01:42;;;;;;;41.05;21.50;;;;;;;2.47;71.31;100010.19;1812531;78;21140;-68
2021/01/11 12:04:11;;;;;;;39.83;22.17;;;;;;;2.46;71.56;100012.32;1812057;79;21161;-64
2021/01/11 12:06:42;;;;;;;48.85;20.20;;;;;;;2.48;71.67;100005.91;1812100;79;21133;-65
2021/01/11 12:09:09;;;;;;;35.23;21.65;;;;;;;2.56;71.65;100006.77;1812777;78;21069;-65
2021/01/11 12:11:44;;;;;;;35.75;19.52;;;;;;;2.64;71.61;100008.88;1813033;79;21333;-65
2021/01/11 12:14:12;;;;;;;48.58;22.87;;;;;;;2.70;71.28;100005.89;1812431;79;21069;-65
2021/01/11 12:16:40;;;;;;;30.60;19.85;;;;;;;2.75;71.03;100002.90;1814078;78;21115;-64
2021/01/11 12:19:07;;;;;;;35.10;20.95;;;;;;;2.78;70.87;100005.04;1818066;78;21063;-65
2021/01/11 12:21:37;;;;;;;29.57;19.80;;;;;;;2.83;70.68;100005.86;1824242;78;21528;-67
2021/01/11 12:24:09;;;;;;;50.05;21.27;;;;;;;2.85;70.59;99999.02;1822860;78;21204;-65
2021/01/11 12:26:48;;;;;;;36.85;20.23;;;;;;;2.87;70.43;99998.58;1819114;78;21138;-64
2021/01/11 12:29:17;;;;;;;28.35;20.75;;;;;;;2.89;70.49;99999.44;1819341;78;21188;-65
2021/01/11 12:31:50;;;;;;;34.73;21.93;;;;;;;2.92;70.24;100000.30;1817534;78;21153;-65
2021/01/11 12:34:17;;;;;;;33.73;19.48;;;;;;;2.92;70.30;100005.43;1815316;78;21577;-65
2021/01/11 12:36:45;;;;;;;28.73;18.40;;;;;;;2.90;70.03;100007.57;1820433;78;21752;-67
2021/01/11 12:39:13;;;;;;;35.78;19.10;;;;;;;2.78;70.15;100007.18;1810243;78;21107;-65
2021/01/11 12:41:41;;;;;;;44.48;20.57;;;;;;;2.72;70.37;100014.88;1818982;78;21564;-67
2021/01/11 12:44:10;;;;;;;28.62;20.40;;;;;;;2.67;70.73;100007.17;1812780;78;21144;-65
2021/01/11 12:46:43;;;;;;;40.95;19.50;;;;;;;2.70;70.90;100014.88;1813160;78;21112;-65
2021/01/11 12:49:13;;;;;;;31.35;19.05;;;;;;;2.74;70.99;100009.31;1817828;78;21133;-63
2021/01/11 12:51:40;;;;;;;35.78;20.08;;;;;;;2.80;70.89;100005.89;1824013;78;21500;-66
2021/01/11 12:54:08;;;;;;;25.75;18.60;;;;;;;2.82;70.68;100005.44;1823595;78;21559;-67
2021/01/11 12:56:36;;;;;;;38.85;20.62;;;;;;;2.77;70.60;100005.47;1821350;78;21197;-65
2021/01/11 12:59:05;;;;;;;32.05;19.65;;;;;;;2.73;70.62;100008.46;1813924;78;21083;-65
2021/01/11 13:01:33;;;;;;;31.80;19.60;;;;;;;2.68;70.70;100009.31;1806929;78;21649;-65
2021/01/11 13:04:02;;;;;;;45.23;24.02;;;;;;;2.67;70.81;100003.32;1815044;78;21048;-65
2021/01/11 13:06:35;;;;;;;43.13;22.80;;;;;;;2.64;70.79;100008.88;1817377;78;21124;-64
2021/01/11 13:09:08;;;;;;;28.23;17.87;;;;;;;2.60;71.00;100012.34;1814566;78;25235;-68
2021/01/11 13:11:44;;;;;;;41.77;21.27;;;;;;;2.54;70.90;100014.90;1808636;78;21662;-64
2021/01/11 13:14:19;;;;;;;34.85;20.88;;;;;;;2.37;71.09;100013.20;1808253;78;21193;-66
2021/01/11 13:16:48;;;;;;;39.70;20.23;;;;;;;2.25;71.55;100017.02;1816100;78;21203;-66
2021/01/11 13:19:16;;;;;;;31.62;19.73;;;;;;;2.26;71.92;100020.44;1811392;78;21167;-67
2021/01/11 13:21:59;;;;;;;65.20;25.43;;;;;;;2.29;71.94;100020.02;1812732;78;21117;-66
2021/01/11 13:24:35;;;;;;;25.80;18.77;;;;;;;2.31;72.01;100018.31;1819083;78;21120;-66
2021/01/11 13:27:06;;;;;;;42.93;20.75;;;;;;;2.36;71.93;100020.89;1822967;78;21386;-67
2021/01/11 13:29:35;;;;;;;29.80;19.87;;;;;;;2.36;71.97;100020.47;1816891;78;21143;-64
2021/01/11 13:32:05;;;;;;;34.18;19.70;;;;;;;2.41;71.95;100019.16;1818443;78;21168;-67
2021/01/11 13:34:36;;;;;;;50.15;21.20;;;;;;;2.44;71.75;100017.88;1817997;78;21118;-67
2021/01/11 13:37:07;;;;;;;31.65;19.62;;;;;;;2.42;71.63;100015.73;1814954;78;21126;-65
2021/01/11 13:39:34;;;;;;;34.70;21.23;;;;;;;2.31;71.55;100013.61;1816270;78;21192;-64
2021/01/11 13:42:14;;;;;;;34.38;19.73;;;;;;;2.18;71.80;100015.33;1817495;78;21206;-67
2021/01/11 13:44:43;;;;;;;33.63;19.67;;;;;;;2.11;72.16;100020.01;1813433;78;21062;-65
2021/01/11 13:47:13;;;;;;;58.00;25.82;;;;;;;2.05;72.25;100019.98;1817314;78;21115;-65
2021/01/11 13:49:41;;;;;;;40.65;21.62;;;;;;;2.02;72.66;100014.84;1822109;78;21040;-65
2021/01/11 13:52:11;;;;;;;38.53;20.17;;;;;;;2.04;72.75;100018.27;1817560;78;21374;-68
2021/01/11 13:54:39;;;;;;;38.88;20.68;;;;;;;2.09;72.70;100011.45;1817640;78;21472;-68
2021/01/11 13:57:09;;;;;;;36.13;23.45;;;;;;;2.15;72.74;100010.61;1813314;77;21178;-67
2021/01/11 13:59:38;;;;;;;50.60;22.45;;;;;;;2.19;72.74;100009.34;1819535;78;21172;-67
2021/01/11 14:02:06;;;;;;;29.50;20.88;;;;;;;2.24;72.71;100011.88;1815813;78;21654;-67
2021/01/11 14:04:36;;;;;;;34.73;21.02;;;;;;;2.22;72.51;100013.16;1811285;78;22180;-68
2021/01/11 14:07:04;;;;;;;34.15;20.65;;;;;;;2.10;72.45;100011.02;1818537;78;21218;-68
2021/01/11 14:09:31;;;;;;;38.73;22.32;;;;;;;1.98;72.75;100007.59;1813726;78;21094;-67
2021/01/11 14:11:59;;;;;;;32.65;21.37;;;;;;;1.96;73.02;100007.16;1817695;78;21235;-66
2021/01/11 14:14:27;;;;;;;34.10;19.40;;;;;;;1.96;73.17;100008.45;1821191;78;21198;-66
2021/01/11 14:16:55;;;;;;;39.05;19.55;;;;;;;1.95;73.20;100006.30;1816980;78;21278;-66
2021/01/11 14:19:23;;;;;;;34.23;20.12;;;;;;;1.96;73.22;100017.00;1800850;78;21616;-67
2021/01/11 14:21:51;;;;;;;31.23;18.17;;;;;;;1.92;73.38;100010.57;1829926;78;21477;-65
2021/01/11 14:24:21;;;;;;;30.70;21.12;;;;;;;1.94;73.58;100003.31;1801826;78;21100;-66
2021/01/11 14:26:49;;;;;;;32.80;20.68;;;;;;;1.98;73.50;100004.17;1827684;78;21021;-67
2021/01/11 14:29:18;;;;;;;35.55;21.62;;;;;;;2.01;73.47;100004.16;1823784;78;21204;-67
2021/01/11 14:31:46;;;;;;;31.40;18.65;;;;;;;2.02;73.46;100006.72;1822989;78;22177;-65
2021/01/11 14:34:14;;;;;;;37.08;19.85;;;;;;;2.07;73.46;100010.16;1824304;78;21144;-65
2021/01/11 14:36:42;;;;;;;46.83;19.12;;;;;;;2.14;73.39;100006.33;1824275;78;21131;-66
2021/01/11 14:39:10;;;;;;;37.75;20.25;;;;;;;2.19;73.31;100006.77;1823897;78;21188;-66
2021/01/11 14:41:37;;;;;;;29.70;19.77;;;;;;;2.22;73.20;100003.32;1823729;78;21327;-66
2021/01/11 14:44:05;;;;;;;33.23;20.05;;;;;;;2.24;73.05;100002.47;1824262;78;21573;-67
2021/01/11 14:46:32;;;;;;;31.20;20.32;;;;;;;2.26;72.79;100003.33;1822952;78;21159;-65
2021/01/11 14:49:00;;;;;;;35.08;23.25;;;;;;;2.26;72.63;100002.47;1823207;78;21168;-66
2021/01/11 14:51:27;;;;;;;46.35;24.72;;;;;;;2.22;72.66;100000.76;1823465;78;21156;-66
2021/01/11 14:53:55;;;;;;;49.95;26.65;;;;;;;2.21;72.66;100001.19;1823659;78;21615;-66
2021/01/11 14:56:23;;;;;;;55.85;31.65;;;;;;;2.20;72.68;99998.19;1823943;78;21529;-64
2021/01/11 14:58:51;;;;;;;49.33;31.60;;;;;;;2.16;72.76;100005.48;1824306;78;21068;-66
2021/01/11 15:01:24;;;;;;;56.15;28.15;;;;;;;2.14;72.85;100004.62;1824364;78;21243;-66
2021/01/11 15:03:53;;;;;;;57.60;28.15;;;;;;;2.11;72.95;99994.77;1824683;78;21056;-65
2021/01/11 15:06:21;;;;;;;44.95;23.83;;;;;;;2.03;73.16;99995.61;1824176;78;21368;-64
2021/01/11 15:08:49;;;;;;;43.48;22.50;;;;;;;2.03;73.26;99994.33;1824265;78;21072;-65
2021/01/11 15:11:18;;;;;;;40.70;22.65;;;;;;;2.05;73.23;99997.75;1824346;78;21071;-64
2021/01/11 15:16:27;;;;;;;31.87;21.70;;;;;;;2.09;73.09;99994.77;1890084;76;22792;-65
2021/01/11 15:18:55;;;;;;;46.23;21.95;;;;;;;1.97;73.05;99994.77;1860964;77;20910;-65
2021/01/11 15:21:23;;;;;;;44.88;24.80;;;;;;;1.93;73.16;99995.61;1860940;77;22187;-65
2021/01/11 15:23:51;;;;;;;39.48;25.95;;;;;;;1.89;73.32;99995.16;1860811;77;21124;-67
2021/01/11 15:26:19;;;;;;;34.95;21.80;;;;;;;1.83;73.40;99997.28;1860935;77;21112;-65
2021/01/11 15:28:46;;;;;;;36.13;22.30;;;;;;;1.77;73.64;99995.16;1860899;77;21663;-66
2021/01/11 15:31:14;;;;;;;38.40;23.85;;;;;;;1.72;73.71;99992.14;1860969;77;20939;-65
2021/01/11 15:33:42;;;;;;;41.00;24.63;;;;;;;1.71;73.97;99993.00;1860898;77;23352;-65
2021/01/11 15:36:12;;;;;;;42.10;25.48;;;;;;;1.76;74.01;99995.58;1860926;77;21545;-65
2021/01/11 15:38:41;;;;;;;40.33;25.30;;;;;;;1.81;73.95;99998.12;1860884;77;21010;-65
2021/01/11 15:41:09;;;;;;;46.98;29.50;;;;;;;1.82;74.10;99998.56;1860939;77;21592;-65
2021/01/11 15:43:37;;;;;;;45.55;31.42;;;;;;;1.85;74.21;99994.30;1860918;77;21056;-65
2021/01/11 15:46:04;;;;;;;52.30;32.17;;;;;;;1.90;74.15;99993.03;1860937;77;21130;-64
2021/01/11 15:48:32;;;;;;;57.10;33.85;;;;;;;1.92;74.16;99990.05;1875569;76;21108;-64
2021/01/11 15:51:00;;;;;;;75.78;49.23;;;;;;;1.94;74.17;99992.19;1807022;79;21096;-65
2021/01/11 15:53:27;;;;;;;58.33;37.93;;;;;;;1.96;74.12;99996.91;1822831;78;21119;-65
2021/01/11 15:55:57;;;;;;;70.00;39.63;;;;;;;1.96;74.09;99999.04;1822809;78;21071;-65
2021/01/11 15:58:24;;;;;;;56.90;35.65;;;;;;;1.96;74.03;100000.75;1807089;79;21206;-63
2021/01/11 16:00:52;;;;;;;52.60;34.67;;;;;;;1.96;74.23;100000.75;1822754;78;21111;-65
2021/01/11 16:03:20;;;;;;;53.85;35.95;;;;;;;1.94;74.31;99996.89;1807050;79;21130;-65
2021/01/11 16:05:48;;;;;;;54.60;34.98;;;;;;;1.97;74.30;100000.75;1822775;78;21091;-64
2021/01/11 16:08:15;;;;;;;63.30;34.80;;;;;;;1.95;74.22;100000.31;1807081;79;21445;-65
2021/01/11 16:10:43;;;;;;;64.70;36.98;;;;;;;1.93;74.24;99998.17;1822769;78;21208;-65
2021/01/11 16:13:11;;;;;;;58.25;33.67;;;;;;;1.84;74.26;100001.98;1806964;79;21116;-65
2021/01/11 16:15:38;;;;;;;53.60;33.63;;;;;;;1.79;74.67;100000.72;1822603;78;21130;-63
2021/01/11 16:18:06;;;;;;;61.73;35.35;;;;;;;1.83;74.79;99997.71;1806998;78;21068;-66
2021/01/11 16:20:34;;;;;;;56.53;34.88;;;;;;;1.83;74.86;100000.27;1822807;78;21119;-66
2021/01/11 16:23:01;;;;;;;44.90;31.10;;;;;;;1.85;74.74;100002.42;1807017;79;21425;-66
2021/01/11 16:25:30;;;;;;;59.23;35.50;;;;;;;1.85;74.48;100001.14;1822739;78;21651;-66
2021/01/11 16:27:58;;;;;;;63.75;35.25;;;;;;;1.85;74.45;99999.43;1822208;78;21076;-63
2021/01/11 16:30:26;;;;;;;62.78;34.25;;;;;;;1.86;74.61;100005.42;1806462;79;21044;-65
2021/01/11 16:32:53;;;;;;;57.20;33.20;;;;;;;1.87;74.71;100002.86;1822183;78;21191;-68